Picayune, MS

20:55 CST le 27 novembre 2014 (GMT -0600)
Hide_A_Way Lake ~OWX | Change Station
CLOSE
Current Station
Stations météorologiques personnelles
Location: Carriere, MS
Altitude: 100 ft
Stations météo à proximité

Alt. 100 ft 30.58 °N, 89.65 °W | Updated 5 seconds ago

Ciel dégagé
Ciel dégagé
41.7 ° F
Paraît 42 ° F
N
0.0
Vent Variable Vent de NNE
Gusts 0.0 mph

Aujourd'hui
Haut(e) -- | Bas -- ° F
--% Risque de précip.
Hier
Haut(e) -- | Bas -- ° F
Precip. -- pouce
6:34 AM 4:57 PM
Lune montante, 35% visible
Pression 30.45 pouce
Visibilité 10.0 Miles terrestres
Nuages Ciel dégagé
Refroidissement éolien 42 ° F
Point de rosée 34 ° F
Humidité 74%
Précipitations 0.00 pouce
Profondeur de la couche neigeuse Non disponible.
UV 0.0 sur 12
Pollen 3.50 sur 12
Qualité de l'air Non disponible.
Flu Activity Non disponible.
METAR KASD 280153Z AUTO 00000KT 10SM CLR 05/02 A3044 RMK AO2 SLP309 T00500017

More Conditions Fewer Conditions

Pression 30.45 pouce
Visibilité 10.0 Miles terrestres
Nuages Ciel dégagé
Refroidissement éolien 42 ° F
Point de rosée 34 ° F
Humidité 74%
Précipitations 0.00 pouce
Profondeur de la couche neigeuse Non disponible.
UV 0.0 sur 12
Pollen 3.50 sur 12
Qualité de l'air Non disponible.
Flu Activity Non disponible.
METAR KASD 280153Z AUTO 00000KT 10SM CLR 05/02 A3044 RMK AO2 SLP309 T00500017

More Conditions Fewer Conditions

10-Day Weather Forecast

Almanac

Astronomie

Nov. 27, 2014 Lever Coucher
Temps réel
Crépuscule civil
Crépuscule nautique
Crépuscule astronomique
Lune
Durée de lumière visible
Longueur du jour
Tomorrow will be .
, % of the Moon is Illuminated

Extrêmes aujourd'hui

State Highs State Lows

Community

WunderPhotos

Upload Photos

1,774,164 Photos téléchargées !

WunderBlogs® & News

Nearby

Qualité de l'air

  Qualité de l'air Indice de la qualité de l'air Polluant
Not available.

Épaisseur de neige

Station Depth Altitude

Activité sismique

Ville Distance Mag. Time & Date
Minimum magnitude displayed is 2.5.

Températures des eaux côtières

Lieu Température

Stations météo à proximité